createdAt,value
2023-04-11T00:00:54.891Z,100061.75
2023-04-11T00:03:22.403Z,100049.88
2023-04-11T00:05:49.115Z,100067.63
2023-04-11T00:08:15.670Z,100065.75
2023-04-11T00:10:43.215Z,100065.75
2023-04-11T00:13:11.394Z,100059.59
2023-04-11T00:15:39.323Z,100060.72
2023-04-11T00:18:06.675Z,100055.56
2023-04-11T00:20:33.259Z,100052.41
2023-04-11T00:22:59.708Z,100033.50
2023-04-11T00:25:27.017Z,100025.97
2023-04-11T00:27:54.060Z,100024.38
2023-04-11T00:30:20.549Z,100020.06
2023-04-11T00:32:47.744Z,100015.53
2023-04-11T00:35:14.223Z,100006.38
2023-04-11T00:37:44.158Z,99998.09
2023-04-11T00:40:12.500Z,99992.66
2023-04-11T00:42:39.696Z,99988.13
2023-04-11T00:45:06.933Z,99967.56
2023-04-11T00:47:34.315Z,99953.59
2023-04-11T00:50:01.295Z,99929.88
2023-04-11T00:52:27.876Z,99914.25
2023-04-11T00:54:54.391Z,99894.47
2023-04-11T00:57:22.743Z,99888.69
2023-04-11T00:59:49.333Z,99877.22
2023-04-11T01:02:15.843Z,99887.34
2023-04-11T01:04:43.291Z,99875.94
2023-04-11T01:07:11.142Z,99840.59
2023-04-11T01:09:38.950Z,99828.97
2023-04-11T01:12:06.392Z,99858.22
2023-04-11T01:14:32.846Z,99907.91
2023-04-11T01:17:01.991Z,99936.91
2023-04-11T01:19:29.665Z,99968.00
2023-04-11T01:21:57.840Z,99978.19
2023-04-11T01:24:24.461Z,99978.03
2023-04-11T01:26:51.968Z,99989.97
2023-04-11T01:29:18.496Z,99997.78
2023-04-11T01:31:45.361Z,100003.19
2023-04-11T01:34:14.346Z,100001.66
2023-04-11T01:36:42.359Z,100004.78
2023-04-11T01:39:08.991Z,99997.94
2023-04-11T01:41:35.958Z,99992.47
2023-04-11T01:44:04.157Z,99981.69
2023-04-11T01:46:31.163Z,99980.22
2023-04-11T01:49:01.479Z,99973.09
2023-04-11T01:51:28.440Z,99977.22
2023-04-11T01:53:55.279Z,99979.53
2023-04-11T01:56:22.100Z,99980.84
2023-04-11T01:58:48.712Z,99981.50
2023-04-11T02:01:19.409Z,99984.16
2023-04-11T02:03:46.411Z,99969.72
2023-04-11T02:06:13.101Z,99967.53
2023-04-11T02:08:39.568Z,99968.03
2023-04-11T02:11:08.082Z,99968.75
2023-04-11T02:13:35.452Z,99965.47
2023-04-11T02:16:11.406Z,99956.69
2023-04-11T02:18:38.148Z,99968.28
2023-04-11T02:21:05.939Z,99953.41
2023-04-11T02:23:32.718Z,99954.25
2023-04-11T02:25:59.214Z,99957.75
2023-04-11T02:28:25.646Z,99953.00
2023-04-11T02:30:52.237Z,99953.75
2023-04-11T02:33:19.365Z,99954.53
2023-04-11T02:35:46.838Z,99945.25
2023-04-11T02:38:13.756Z,99933.09
2023-04-11T02:40:40.631Z,99912.78
2023-04-11T02:43:07.168Z,99904.88
2023-04-11T02:45:33.563Z,99896.31
2023-04-11T02:48:00.012Z,99896.66
2023-04-11T02:50:27.060Z,99884.22
2023-04-11T02:52:53.989Z,99885.78
2023-04-11T02:55:23.183Z,99893.31
2023-04-11T02:57:50.570Z,99893.53
2023-04-11T03:00:19.267Z,99892.56
2023-04-11T03:02:45.946Z,99888.91
2023-04-11T03:05:12.851Z,99889.31
2023-04-11T03:07:40.507Z,99887.16
2023-04-11T03:10:07.791Z,99886.66
2023-04-11T03:12:34.254Z,99870.00
2023-04-11T03:15:00.664Z,99858.47
2023-04-11T03:17:27.151Z,99849.16
2023-04-11T03:19:53.560Z,99858.94
2023-04-11T03:22:20.030Z,99858.47
2023-04-11T03:24:46.975Z,99863.59
2023-04-11T03:27:13.393Z,99879.34
2023-04-11T03:29:39.816Z,99882.34
2023-04-11T03:32:06.493Z,99891.44
2023-04-11T03:34:33.042Z,99876.41
2023-04-11T03:36:59.460Z,99881.19
2023-04-11T03:39:25.904Z,99891.94
2023-04-11T03:41:52.399Z,99886.63
2023-04-11T03:44:18.809Z,99889.72
2023-04-11T03:46:45.377Z,99899.25
2023-04-11T03:49:11.849Z,99905.22
2023-04-11T03:51:38.286Z,99908.84
2023-04-11T03:54:04.751Z,99905.41
2023-04-11T03:56:31.147Z,99907.19
2023-04-11T03:58:57.704Z,99896.13
2023-04-11T04:01:24.242Z,99912.91
2023-04-11T04:03:50.928Z,99901.88
2023-04-11T04:06:17.612Z,99899.41
2023-04-11T04:08:44.601Z,99896.22
2023-04-11T04:11:11.070Z,99908.16
2023-04-11T04:13:37.502Z,99903.69
2023-04-11T04:16:04.361Z,99903.41
2023-04-11T04:18:30.881Z,99906.84
2023-04-11T04:20:57.296Z,99900.78
2023-04-11T04:23:23.886Z,99899.97
2023-04-11T04:25:51.329Z,99904.81
2023-04-11T04:28:20.476Z,99903.53
2023-04-11T04:30:53.982Z,99900.31
2023-04-11T04:33:21.584Z,99903.31
2023-04-11T04:35:48.264Z,99905.13
2023-04-11T04:38:17.607Z,99905.66
2023-04-11T04:40:44.386Z,99915.44
2023-04-11T04:43:18.388Z,99908.94
2023-04-11T04:45:45.500Z,99910.88
2023-04-11T04:48:15.345Z,99917.47
2023-04-11T04:50:41.786Z,99909.75
2023-04-11T04:53:08.253Z,99911.50
2023-04-11T04:55:35.502Z,99910.78
2023-04-11T04:58:01.909Z,99915.41
2023-04-11T05:00:28.344Z,99922.56
2023-04-11T05:02:55.081Z,99944.72
2023-04-11T05:05:21.720Z,99934.75
2023-04-11T05:07:48.370Z,99932.56
2023-04-11T05:10:14.822Z,99946.50
2023-04-11T05:12:41.214Z,99948.94
2023-04-11T05:15:11.505Z,99952.06
2023-04-11T05:17:38.467Z,99966.69
2023-04-11T05:20:07.233Z,99959.13
2023-04-11T05:22:33.667Z,99995.44
2023-04-11T05:25:01.032Z,99995.78
2023-04-11T05:27:27.474Z,100006.06
2023-04-11T05:29:54.305Z,100018.56
2023-04-11T05:32:20.796Z,100023.84
2023-04-11T05:34:58.153Z,100020.25
2023-04-11T05:37:26.002Z,100008.50
2023-04-11T05:39:52.758Z,99997.53
2023-04-11T05:42:19.250Z,99993.59
2023-04-11T05:44:45.757Z,100000.81
2023-04-11T05:47:12.209Z,100007.59
2023-04-11T05:49:38.631Z,100004.94
2023-04-11T05:52:05.183Z,100001.03
2023-04-11T05:54:33.576Z,100003.44
2023-04-11T05:57:01.881Z,100003.44
2023-04-11T05:59:31.700Z,99995.72
2023-04-11T06:01:59.010Z,99999.72
2023-04-11T06:04:26.038Z,99992.25
2023-04-11T06:06:53.693Z,99997.72
2023-04-11T06:09:20.440Z,99992.66
2023-04-11T06:11:46.915Z,99986.19
2023-04-11T06:14:13.363Z,99990.53
2023-04-11T06:16:40.047Z,99982.47
2023-04-11T06:19:06.771Z,99979.22
2023-04-11T06:21:33.254Z,99972.16
2023-04-11T06:24:05.667Z,99977.03
2023-04-11T06:26:32.138Z,99970.81
2023-04-11T06:28:58.637Z,99969.25
2023-04-11T06:31:25.540Z,99965.94
2023-04-11T06:33:51.997Z,99962.22
2023-04-11T06:36:18.532Z,99954.72
2023-04-11T06:38:45.215Z,99965.38
2023-04-11T06:41:11.628Z,99973.66
2023-04-11T06:43:38.110Z,99969.72
2023-04-11T06:46:07.927Z,99980.00
2023-04-11T06:48:34.529Z,99979.53
2023-04-11T06:51:01.075Z,99977.19
2023-04-11T06:53:27.626Z,99971.63
2023-04-11T06:55:54.142Z,99980.84
2023-04-11T06:58:20.648Z,99985.59
2023-04-11T07:00:47.079Z,99991.19
2023-04-11T07:03:14.032Z,99990.09
2023-04-11T07:05:40.955Z,99981.03
2023-04-11T07:08:07.416Z,99993.22
2023-04-11T07:10:33.836Z,100006.03
2023-04-11T07:13:00.284Z,100013.72
2023-04-11T07:15:27.715Z,100006.66
2023-04-11T07:17:54.328Z,100004.44
2023-04-11T07:20:20.901Z,100029.72
2023-04-11T07:22:47.357Z,100063.91
2023-04-11T07:25:14.167Z,100092.88
2023-04-11T07:27:43.700Z,100088.72
2023-04-11T07:30:10.647Z,100089.53
2023-04-11T07:32:37.186Z,100096.53
2023-04-11T07:35:03.833Z,100102.34
2023-04-11T07:37:30.941Z,100084.09
2023-04-11T07:39:57.383Z,100100.19
2023-04-11T07:42:23.812Z,100091.69
2023-04-11T07:44:50.221Z,100085.94
2023-04-11T07:47:16.712Z,100090.47
2023-04-11T07:49:43.179Z,100088.09
2023-04-11T07:52:10.815Z,100086.78
2023-04-11T07:54:38.980Z,100082.38
2023-04-11T07:57:05.537Z,100083.25
2023-04-11T07:59:31.988Z,100085.94
2023-04-11T08:02:01.106Z,100089.38
2023-04-11T08:04:32.523Z,100086.06
2023-04-11T08:06:59.266Z,100097.16
2023-04-11T08:09:26.527Z,100103.78
2023-04-11T08:11:53.429Z,100100.09
2023-04-11T08:14:19.866Z,100112.97
2023-04-11T08:16:46.306Z,100106.56
2023-04-11T08:19:13.131Z,100106.44
2023-04-11T08:21:39.668Z,100106.09
2023-04-11T08:24:06.321Z,100110.88
2023-04-11T08:26:32.811Z,100115.06
2023-04-11T08:28:59.260Z,100115.25
2023-04-11T08:31:26.872Z,100112.97
2023-04-11T08:33:53.358Z,100104.91
2023-04-11T08:36:20.024Z,100120.31
2023-04-11T08:38:46.554Z,100096.25
2023-04-11T08:41:14.382Z,100105.25
2023-04-11T08:43:40.890Z,100108.53
2023-04-11T08:46:08.276Z,100107.97
2023-04-11T08:48:34.940Z,100109.69
2023-04-11T08:51:01.844Z,100106.47
2023-04-11T08:53:30.125Z,100120.31
2023-04-11T08:55:56.622Z,100095.75
2023-04-11T08:58:23.112Z,100100.94
2023-04-11T09:00:49.548Z,100101.81
2023-04-11T09:03:17.170Z,100100.53
2023-04-11T09:05:46.300Z,100093.69
2023-04-11T09:08:14.678Z,100092.53
2023-04-11T09:10:45.236Z,100097.72
2023-04-11T09:13:31.965Z,100094.91
2023-04-11T09:16:14.503Z,100090.09
2023-04-11T09:18:44.280Z,100080.25
2023-04-11T09:21:13.195Z,100088.59
2023-04-11T09:23:39.637Z,100098.06
2023-04-11T09:26:07.971Z,100089.06
2023-04-11T09:28:44.532Z,100096.38
2023-04-11T09:31:13.089Z,100084.72
2023-04-11T09:33:51.751Z,100085.38
2023-04-11T09:36:23.061Z,100081.19
2023-04-11T09:38:49.608Z,100088.19
2023-04-11T09:41:29.772Z,100080.75
2023-04-11T09:43:56.519Z,100091.84
2023-04-11T09:46:23.768Z,100092.16
2023-04-11T09:48:52.237Z,100074.56
2023-04-11T09:51:31.737Z,100086.34
2023-04-11T09:54:03.367Z,100085.41
2023-04-11T09:56:31.063Z,100097.84
2023-04-11T09:58:59.947Z,100091.75
2023-04-11T10:01:27.311Z,100078.25
2023-04-11T10:03:55.683Z,100073.72
2023-04-11T10:06:34.118Z,100087.41
2023-04-11T10:09:12.223Z,100083.91
2023-04-11T10:11:43.291Z,100077.41
2023-04-11T10:14:29.991Z,100075.34
2023-04-11T10:17:16.922Z,100078.41
2023-04-11T10:19:45.618Z,100076.66
2023-04-11T10:22:41.044Z,100079.69
2023-04-11T10:25:20.500Z,100076.22
2023-04-11T10:27:57.057Z,100080.50
2023-04-11T10:30:43.732Z,100083.25
2023-04-11T10:33:17.370Z,100069.22
2023-04-11T10:36:11.379Z,100082.91
2023-04-11T10:38:43.873Z,100086.66
2023-04-11T10:41:33.327Z,100095.41
2023-04-11T10:44:32.222Z,100089.06
2023-04-11T10:46:58.805Z,100104.59
2023-04-11T10:49:32.798Z,100139.44
2023-04-11T10:52:21.768Z,100156.53
2023-04-11T10:54:53.266Z,100158.38
2023-04-11T10:57:21.109Z,100143.78
2023-04-11T10:59:50.454Z,100145.47
2023-04-11T11:02:17.204Z,100133.22
2023-04-11T11:04:43.810Z,100129.84
2023-04-11T11:07:16.950Z,100128.38
2023-04-11T11:09:49.207Z,100128.72
2023-04-11T11:12:16.825Z,100123.63
2023-04-11T11:14:45.183Z,100121.25
2023-04-11T11:17:13.199Z,100122.97
2023-04-11T11:19:47.088Z,100129.47
2023-04-11T11:22:16.696Z,100134.56
2023-04-11T11:24:43.128Z,100123.47
2023-04-11T11:27:23.993Z,100134.81
2023-04-11T11:29:51.497Z,100140.38
2023-04-11T11:32:28.526Z,100138.50
2023-04-11T11:34:57.371Z,100130.94
2023-04-11T11:37:24.012Z,100135.56
2023-04-11T11:39:50.863Z,100123.16
2023-04-11T11:42:18.059Z,100132.84
2023-04-11T11:44:44.497Z,100144.81
2023-04-11T11:47:14.913Z,100153.13
2023-04-11T11:49:49.448Z,100157.56
2023-04-11T11:52:41.844Z,100149.03
2023-04-11T11:55:29.159Z,100150.41
2023-04-11T11:58:00.879Z,100157.66
2023-04-11T12:00:29.032Z,100153.91
2023-04-11T12:02:56.848Z,100165.06
2023-04-11T12:05:33.077Z,100155.06
2023-04-11T12:08:05.202Z,100165.91
2023-04-11T12:10:47.623Z,100164.69
2023-04-11T12:13:21.217Z,100167.59
2023-04-11T12:16:06.285Z,100149.50
2023-04-11T12:18:33.484Z,100165.78
2023-04-11T12:20:59.917Z,100172.31
2023-04-11T12:23:26.357Z,100167.22
2023-04-11T12:25:52.900Z,100168.59
2023-04-11T12:28:19.372Z,100167.81
2023-04-11T12:30:45.931Z,100178.75
2023-04-11T12:33:12.393Z,100176.41
2023-04-11T12:35:38.824Z,100169.19
2023-04-11T12:38:06.458Z,100170.56
2023-04-11T12:40:32.889Z,100182.25
2023-04-11T12:42:59.544Z,100161.50
2023-04-11T12:45:26.472Z,100168.00
2023-04-11T12:47:53.454Z,100171.84
2023-04-11T12:50:22.761Z,100171.69
2023-04-11T12:52:49.319Z,100175.31
2023-04-11T12:55:16.041Z,100174.97
2023-04-11T12:57:43.669Z,100183.84
2023-04-11T13:00:11.559Z,100189.19
2023-04-11T13:02:43.871Z,100199.13
2023-04-11T13:05:15.361Z,100203.91
2023-04-11T13:07:44.673Z,100195.34
2023-04-11T13:10:11.941Z,100206.66
2023-04-11T13:12:43.771Z,100195.84
2023-04-11T13:15:15.277Z,100191.84
2023-04-11T13:17:42.469Z,100195.75
2023-04-11T13:20:10.604Z,100194.16
2023-04-11T13:22:38.210Z,100201.03
2023-04-11T13:25:05.280Z,100200.56
2023-04-11T13:27:32.112Z,100200.50
2023-04-11T13:29:58.644Z,100204.53
2023-04-11T13:32:25.115Z,100195.69
2023-04-11T13:34:51.639Z,100198.38
2023-04-11T13:37:18.087Z,100206.28
2023-04-11T13:39:44.612Z,100207.56
2023-04-11T13:42:12.612Z,100219.91
2023-04-11T13:44:39.149Z,100218.69
2023-04-11T13:47:06.062Z,100227.72
2023-04-11T13:49:32.467Z,100245.38
2023-04-11T13:51:58.888Z,100269.16
2023-04-11T13:54:26.145Z,100290.94
2023-04-11T13:56:52.615Z,100297.50
2023-04-11T13:59:19.115Z,100295.69
2023-04-11T14:01:45.760Z,100319.06
2023-04-11T14:04:12.445Z,100350.81
2023-04-11T14:06:39.793Z,100352.00
2023-04-11T14:09:06.333Z,100373.38
2023-04-11T14:11:32.749Z,100390.13
2023-04-11T14:13:59.182Z,100398.16
2023-04-11T14:16:25.669Z,100393.25
2023-04-11T14:18:52.153Z,100376.47
2023-04-11T14:21:18.927Z,100362.66
2023-04-11T14:23:45.466Z,100349.19
2023-04-11T14:26:11.931Z,100337.81
2023-04-11T14:28:38.418Z,100319.16
2023-04-11T14:31:05.237Z,100306.41
2023-04-11T14:33:32.256Z,100299.03
2023-04-11T14:35:58.698Z,100294.59
2023-04-11T14:38:25.319Z,100290.88
2023-04-11T14:40:51.746Z,100304.81
2023-04-11T14:43:18.270Z,100320.84
2023-04-11T14:45:44.740Z,100322.91
2023-04-11T14:48:11.665Z,100336.84
2023-04-11T14:50:38.183Z,100328.84
2023-04-11T14:53:04.600Z,100346.16
2023-04-11T14:55:31.219Z,100341.75
2023-04-11T14:57:57.758Z,100358.97
2023-04-11T15:00:24.832Z,100357.25
2023-04-11T15:02:57.231Z,100371.22
2023-04-11T15:05:24.461Z,100354.31
2023-04-11T15:07:52.247Z,100358.56
2023-04-11T15:10:21.054Z,100367.63
2023-04-11T15:12:47.807Z,100367.16
2023-04-11T15:15:14.726Z,100376.84
2023-04-11T15:17:43.617Z,100373.84
2023-04-11T15:20:11.791Z,100388.16
2023-04-11T15:22:43.373Z,100400.88
2023-04-11T15:25:15.465Z,100406.25
2023-04-11T15:27:42.677Z,100418.94
2023-04-11T15:30:10.335Z,100431.22
2023-04-11T15:32:42.075Z,100429.28
2023-04-11T15:35:09.144Z,100440.38
2023-04-11T15:37:35.645Z,100421.59
2023-04-11T15:40:05.898Z,100365.66
2023-04-11T15:42:35.139Z,100375.81
2023-04-11T15:45:01.909Z,100382.53
2023-04-11T15:47:28.608Z,100380.28
2023-04-11T15:49:55.052Z,100376.34
2023-04-11T15:52:21.512Z,100379.63
2023-04-11T15:54:47.928Z,100381.34
2023-04-11T15:57:14.358Z,100372.47
2023-04-11T15:59:41.478Z,100382.56
2023-04-11T16:02:08.004Z,100385.09
2023-04-11T16:04:38.415Z,100386.00
2023-04-11T16:07:06.597Z,100380.31
2023-04-11T16:09:33.870Z,100384.25
2023-04-11T16:12:01.326Z,100375.47
2023-04-11T16:14:29.248Z,100377.84
2023-04-11T16:16:57.327Z,100382.75
2023-04-11T16:19:24.084Z,100379.13
2023-04-11T16:21:50.653Z,100367.47
2023-04-11T16:24:18.816Z,100373.13
2023-04-11T16:26:45.373Z,100366.59
2023-04-11T16:29:11.775Z,100366.00
2023-04-11T16:31:38.385Z,100373.81
2023-04-11T16:34:04.832Z,100373.53
2023-04-11T16:36:32.907Z,100367.56
2023-04-11T16:38:59.350Z,100369.00
2023-04-11T16:41:26.024Z,100368.13
2023-04-11T16:43:52.450Z,100363.09
2023-04-11T16:46:19.227Z,100363.84
2023-04-11T16:48:45.728Z,100364.78
2023-04-11T16:51:13.237Z,100365.16
2023-04-11T16:53:40.699Z,100370.44
2023-04-11T16:56:07.391Z,100362.47
2023-04-11T16:58:33.918Z,100361.91
2023-04-11T17:01:01.577Z,100358.63
2023-04-11T17:03:28.415Z,100369.84
2023-04-11T17:05:55.178Z,100367.41
2023-04-11T17:08:21.693Z,100370.47
2023-04-11T17:10:48.231Z,100369.56
2023-04-11T17:13:15.895Z,100368.38
2023-04-11T17:15:42.390Z,100373.34
2023-04-11T17:18:08.955Z,100374.00
2023-04-11T17:20:36.044Z,100375.56
2023-04-11T17:23:02.545Z,100380.97
2023-04-11T17:25:30.027Z,100372.16
2023-04-11T17:27:57.306Z,100374.91
2023-04-11T17:30:23.755Z,100372.66
2023-04-11T17:32:50.210Z,100369.75
2023-04-11T17:35:16.666Z,100373.53
2023-04-11T17:37:43.082Z,100377.38
2023-04-11T17:40:13.113Z,100373.78
2023-04-11T17:42:40.509Z,100378.03
2023-04-11T17:51:09.036Z,100381.13
2023-04-11T17:53:35.824Z,100384.31
2023-04-11T17:56:08.390Z,100378.13
2023-04-11T17:58:40.075Z,100385.56
2023-04-11T18:01:09.046Z,100387.09
2023-04-11T18:03:39.668Z,100387.16
2023-04-11T18:06:10.956Z,100397.81
2023-04-11T18:11:09.619Z,100399.50
2023-04-11T18:13:36.119Z,100411.91
2023-04-11T18:16:02.545Z,100412.34
2023-04-11T18:18:29.013Z,100424.66
2023-04-11T18:21:01.521Z,100419.22
2023-04-11T18:23:40.123Z,100424.66
2023-04-11T18:26:09.375Z,100421.22
2023-04-11T18:28:38.852Z,100417.72
2023-04-11T18:31:11.906Z,100430.53
2023-04-11T18:33:42.850Z,100429.47
2023-04-11T18:36:09.782Z,100431.38
2023-04-11T18:38:39.501Z,100428.88
2023-04-11T18:41:08.896Z,100423.25
2023-04-11T18:43:39.034Z,100423.75
2023-04-11T18:46:09.616Z,100431.59
2023-04-11T18:48:36.444Z,100434.34
2023-04-11T18:51:04.841Z,100445.19
2023-04-11T18:53:31.314Z,100438.38
2023-04-11T18:55:58.059Z,100432.16
2023-04-11T18:58:26.100Z,100437.56
2023-04-11T19:00:53.731Z,100437.84
2023-04-11T19:03:20.924Z,100438.22
2023-04-11T19:05:48.146Z,100428.34
2023-04-11T19:08:14.783Z,100430.47
2023-04-11T19:10:41.235Z,100431.19
2023-04-11T19:13:07.746Z,100428.19
2023-04-11T19:15:34.200Z,100427.06
2023-04-11T19:18:01.621Z,100425.16
2023-04-11T19:20:29.340Z,100429.78
2023-04-11T19:22:55.753Z,100429.59
2023-04-11T19:25:22.233Z,100429.78
2023-04-11T19:27:48.939Z,100419.75
2023-04-11T19:30:15.383Z,100422.28
2023-04-11T19:32:43.905Z,100421.50
2023-04-11T19:35:11.316Z,100425.66
2023-04-11T19:37:38.393Z,100418.69
2023-04-11T19:40:13.683Z,100429.13
2023-04-11T19:42:40.519Z,100424.34
2023-04-11T19:45:09.571Z,100424.34
2023-04-11T19:47:36.231Z,100414.69
2023-04-11T19:50:02.901Z,100420.66
2023-04-11T19:52:29.382Z,100422.63
2023-04-11T19:54:56.787Z,100425.16
2023-04-11T19:57:25.513Z,100424.94
2023-04-11T19:59:51.955Z,100418.22
2023-04-11T20:02:18.591Z,100427.09
2023-04-11T20:04:45.828Z,100427.19
2023-04-11T20:07:12.631Z,100428.47
2023-04-11T20:09:39.054Z,100419.59
2023-04-11T20:12:06.627Z,100421.97
2023-04-11T20:14:33.418Z,100419.47
2023-04-11T20:16:59.951Z,100420.69
2023-04-11T20:19:31.542Z,100421.03
2023-04-11T20:22:00.484Z,100417.97
2023-04-11T20:24:27.702Z,100409.94
2023-04-11T20:26:54.362Z,100407.38
2023-04-11T20:29:21.164Z,100412.16
2023-04-11T20:31:47.592Z,100415.22
2023-04-11T20:34:13.989Z,100405.16
2023-04-11T20:36:40.537Z,100408.22
2023-04-11T20:39:07.035Z,100397.47
2023-04-11T20:41:33.921Z,100396.44
2023-04-11T20:44:00.533Z,100382.47
2023-04-11T20:47:12.864Z,100387.56
2023-04-11T20:49:56.081Z,100388.84
2023-04-11T20:55:49.092Z,100382.44
2023-04-11T20:58:18.523Z,100388.22
2023-04-11T21:00:45.021Z,100374.78
2023-04-11T21:03:11.663Z,100382.69
2023-04-11T21:05:39.985Z,100384.13
2023-04-11T21:08:06.850Z,100380.59
2023-04-11T21:10:33.292Z,100382.25
2023-04-11T21:12:59.695Z,100380.69
2023-04-11T21:15:26.126Z,100376.09
2023-04-11T21:17:52.739Z,100379.28
2023-04-11T21:20:20.184Z,100373.25
2023-04-11T21:22:52.799Z,100366.72
2023-04-11T21:25:19.742Z,100363.06
2023-04-11T21:27:46.643Z,100365.44
2023-04-11T21:30:14.402Z,100360.88
2023-04-11T21:32:41.049Z,100367.47
2023-04-11T21:35:11.343Z,100376.66
2023-04-11T21:37:38.392Z,100379.97
2023-04-11T21:40:05.474Z,100373.03
2023-04-11T21:42:31.910Z,100382.28
2023-04-11T21:44:58.381Z,100389.03
2023-04-11T21:47:24.876Z,100375.59
2023-04-11T21:49:51.329Z,100374.03
2023-04-11T21:52:17.818Z,100375.78
2023-04-11T21:54:44.265Z,100372.94
2023-04-11T21:57:10.939Z,100370.84
2023-04-11T21:59:39.115Z,100367.94
2023-04-11T22:02:06.461Z,100369.47
2023-04-11T22:05:09.192Z,100371.13
2023-04-11T22:07:46.171Z,100367.38
2023-04-11T22:10:12.949Z,100367.06
2023-04-11T22:12:40.204Z,100362.44
2023-04-11T22:15:07.681Z,100367.00
2023-04-11T22:17:34.860Z,100354.81
2023-04-11T22:20:01.365Z,100346.00
2023-04-11T22:22:28.637Z,100353.84
2023-04-11T22:28:18.203Z,100348.78
2023-04-11T22:31:12.016Z,100342.94
2023-04-11T22:33:38.422Z,100339.16
2023-04-11T22:36:11.631Z,100336.78
2023-04-11T22:38:38.224Z,100333.03
2023-04-11T22:41:04.789Z,100331.47
2023-04-11T22:43:31.512Z,100329.25
2023-04-11T22:45:57.964Z,100325.03
2023-04-11T22:48:29.669Z,100334.16
2023-04-11T22:50:59.108Z,100337.97
2023-04-11T22:53:25.983Z,100327.78
2023-04-11T22:55:52.420Z,100322.97
2023-04-11T22:58:28.073Z,100317.75
2023-04-11T23:01:03.489Z,100311.09
2023-04-11T23:03:30.077Z,100317.19
2023-04-11T23:05:56.463Z,100313.34
2023-04-11T23:08:22.885Z,100319.06
2023-04-11T23:11:24.814Z,100309.47
2023-04-11T23:13:52.634Z,100302.31
2023-04-11T23:16:19.345Z,100291.50
2023-04-11T23:18:45.770Z,100293.78
2023-04-11T23:21:15.234Z,100285.88
2023-04-11T23:23:41.728Z,100278.25
2023-04-11T23:26:08.246Z,100277.97
2023-04-11T23:28:34.660Z,100283.00
2023-04-11T23:31:01.436Z,100292.72
2023-04-11T23:33:27.959Z,100276.38
2023-04-11T23:35:54.510Z,100283.97
2023-04-11T23:38:21.429Z,100288.38
2023-04-11T23:40:53.878Z,100278.25
2023-04-11T23:43:20.281Z,100263.94
2023-04-11T23:45:47.209Z,100261.66
2023-04-11T23:48:13.675Z,100256.22
2023-04-11T23:50:40.876Z,100257.53
2023-04-11T23:53:08.249Z,100239.53
2023-04-11T23:55:35.159Z,100248.84
2023-04-11T23:58:01.671Z,100250.50
